Time;durP1;ratioP1;P1;durP2;ratioP2;P2;SDS_P1;SDS_P2;PMS_P1;PMS_P2;Temp;Humidity;BMP_temperature;BMP_pressure;BME280_temperature;BME280_humidity;BME280_pressure;Samples;Min_cycle;Max_cycle;Signal;HPM_P1;HPM_P2
2022/09/12 00:02:24;;;;;;;1.77;1.30;;;14.50;99.90;;;;;;4981288;28;20046;-74
2022/09/12 00:04:50;;;;;;;3.00;2.50;;;14.40;99.90;;;;;;4981970;28;20376;-74
2022/09/12 00:07:16;;;;;;;3.60;3.30;;;14.40;99.90;;;;;;4979372;28;20137;-74
2022/09/12 00:09:42;;;;;;;3.00;2.70;;;14.40;99.90;;;;;;4978140;28;20121;-74
2022/09/12 00:12:08;;;;;;;6.00;4.70;;;14.40;99.90;;;;;;4979187;28;20094;-74
2022/09/12 00:14:34;;;;;;;4.38;2.47;;;14.40;99.90;;;;;;4981589;28;20034;-74
2022/09/12 00:17:00;;;;;;;4.50;2.47;;;14.40;99.90;;;;;;4977769;28;20036;-74
2022/09/12 00:19:27;;;;;;;1.17;0.90;;;14.40;99.90;;;;;;4981988;28;20057;-74
2022/09/12 00:21:53;;;;;;;1.00;1.00;;;14.40;99.90;;;;;;4980375;28;20038;-74
2022/09/12 00:24:19;;;;;;;1.95;1.10;;;14.30;99.90;;;;;;4980479;28;20047;-74
2022/09/12 00:26:45;;;;;;;3.22;1.05;;;14.20;99.90;;;;;;4965769;28;20137;-74
2022/09/12 00:29:16;;;;;;;2.72;1.55;;;14.20;99.90;;;;;;4980913;28;20033;-74
2022/09/12 00:31:41;;;;;;;1.35;1.30;;;14.10;99.90;;;;;;4982170;28;20056;-74
2022/09/12 00:34:08;;;;;;;1.60;1.50;;;14.10;99.90;;;;;;4962840;28;20047;-74
2022/09/12 00:36:34;;;;;;;2.38;1.50;;;14.00;99.90;;;;;;4980233;28;20050;-74
2022/09/12 00:39:00;;;;;;;3.83;1.27;;;14.00;99.90;;;;;;4982264;28;20125;-74
2022/09/12 00:41:30;;;;;;;1.30;1.20;;;14.00;99.90;;;;;;4978282;28;20042;-74
2022/09/12 00:44:22;;;;;;;4.18;3.78;;;13.90;99.90;;;;;;4981664;28;20027;-74
2022/09/12 00:46:58;;;;;;;6.20;5.70;;;13.90;99.90;;;;;;4982578;28;20042;-74
2022/09/12 00:49:53;;;;;;;6.65;5.80;;;13.90;99.90;;;;;;4967866;28;20545;-74
2022/09/12 00:52:26;;;;;;;6.78;6.13;;;14.00;99.90;;;;;;4983588;28;20510;-74
2022/09/12 00:55:30;;;;;;;5.45;4.95;;;14.00;99.90;;;;;;4981568;28;20527;-74
2022/09/12 00:58:01;;;;;;;6.88;5.88;;;14.00;99.90;;;;;;4976048;28;20057;-74
2022/09/12 01:00:27;;;;;;;8.57;7.43;;;14.00;99.90;;;;;;4985812;28;20031;-74
2022/09/12 01:03:00;;;;;;;10.60;9.50;;;14.00;99.90;;;;;;4964706;28;20495;-74
2022/09/12 01:05:29;;;;;;;9.63;8.82;;;14.00;99.90;;;;;;4975578;28;20499;-74
2022/09/12 01:07:56;;;;;;;6.22;4.90;;;14.00;99.90;;;;;;4981130;28;20093;-74
2022/09/12 01:10:23;;;;;;;6.20;5.70;;;14.00;99.90;;;;;;4980249;28;20461;-74
2022/09/12 01:12:49;;;;;;;7.88;6.38;;;14.00;99.90;;;;;;4981321;28;20109;-74
2022/09/12 01:15:15;;;;;;;2.05;1.95;;;14.00;99.90;;;;;;4964472;28;20717;-74
2022/09/12 01:17:51;;;;;;;7.63;6.93;;;14.00;99.90;;;;;;4981849;28;20085;-74
2022/09/12 01:20:52;;;;;;;6.25;5.63;;;13.90;99.90;;;;;;4980052;28;20368;-74
2022/09/12 01:23:28;;;;;;;1.70;1.60;;;13.90;99.90;;;;;;4968575;28;20108;-74
2022/09/12 01:26:09;;;;;;;2.00;1.90;;;13.90;99.90;;;;;;4982048;28;20568;-74
2022/09/12 01:29:12;;;;;;;6.63;5.72;;;13.80;99.90;;;;;;4984016;28;20476;-74
2022/09/12 01:32:02;;;;;;;6.40;5.80;;;13.80;99.90;;;;;;4974309;28;20513;-74
2022/09/12 01:34:43;;;;;;;6.18;5.68;;;13.80;99.90;;;;;;4984310;28;20046;-74
2022/09/12 01:37:36;;;;;;;6.22;5.68;;;13.80;99.90;;;;;;4988161;28;20030;-74
2022/09/12 01:40:50;;;;;;;11.55;9.13;;;13.80;99.90;;;;;;4985338;28;20049;-74
2022/09/12 01:43:34;;;;;;;3.20;2.13;;;13.80;99.90;;;;;;4926411;28;20092;-74
2022/09/12 01:46:10;;;;;;;2.20;1.50;;;13.80;99.90;;;;;;4974885;28;20434;-74
2022/09/12 01:48:58;;;;;;;2.17;1.80;;;13.70;99.90;;;;;;4980764;28;20169;-74
2022/09/12 01:51:31;;;;;;;2.63;2.45;;;13.60;99.90;;;;;;4988483;28;20066;-74
2022/09/12 01:54:17;;;;;;;4.60;3.35;;;13.60;99.90;;;;;;4991267;28;20138;-74
2022/09/12 01:56:44;;;;;;;5.32;4.93;;;13.50;99.90;;;;;;4984655;28;20026;-74
2022/09/12 01:59:20;;;;;;;6.40;5.90;;;13.50;99.90;;;;;;4977566;28;20046;-74
2022/09/12 02:02:08;;;;;;;5.97;5.35;;;13.50;99.90;;;;;;4985433;28;20042;-74
2022/09/12 02:04:51;;;;;;;7.68;6.88;;;13.50;99.90;;;;;;4986467;28;20145;-74
2022/09/12 02:07:27;;;;;;;9.65;8.75;;;13.50;99.90;;;;;;4984720;28;20466;-74
2022/09/12 02:10:05;;;;;;;12.82;11.55;;;13.50;99.90;;;;;;4981766;28;20106;-74
2022/09/12 02:12:46;;;;;;;13.85;11.98;;;13.60;99.90;;;;;;4983756;28;20045;-74
2022/09/12 02:15:14;;;;;;;15.82;14.18;;;13.60;99.90;;;;;;5002555;28;20046;-74
2022/09/12 02:17:42;;;;;;;12.35;11.15;;;13.60;99.90;;;;;;4984630;28;20039;-74
2022/09/12 02:20:20;;;;;;;11.88;10.65;;;13.60;99.90;;;;;;4980930;28;20031;-74
2022/09/12 02:22:49;;;;;;;11.93;10.70;;;13.60;99.90;;;;;;4982924;28;20042;-74
2022/09/12 02:25:16;;;;;;;8.10;7.32;;;13.60;99.90;;;;;;4979607;28;20153;-74
2022/09/12 02:27:52;;;;;;;10.68;9.68;;;13.60;99.90;;;;;;4986430;28;20045;-74
2022/09/12 02:30:19;;;;;;;13.15;10.52;;;13.60;99.90;;;;;;4979996;28;20042;-74
2022/09/12 02:33:04;;;;;;;11.10;10.02;;;13.60;99.90;;;;;;4983588;28;20046;-74
2022/09/12 02:35:42;;;;;;;11.18;8.93;;;13.60;99.90;;;;;;4985000;28;20478;-74
2022/09/12 02:38:32;;;;;;;11.05;9.80;;;13.60;99.90;;;;;;4984944;28;20030;-74
2022/09/12 02:40:58;;;;;;;11.45;10.35;;;13.60;99.90;;;;;;4983355;28;20046;-74
2022/09/12 02:43:23;;;;;;;11.32;10.23;;;13.50;99.90;;;;;;4985507;28;20042;-74
2022/09/12 02:45:49;;;;;;;10.60;9.55;;;13.50;99.90;;;;;;4982145;28;20499;-74
2022/09/12 02:48:21;;;;;;;10.55;9.45;;;13.50;99.90;;;;;;4980716;28;20684;-74
2022/09/12 02:50:47;;;;;;;13.05;11.75;;;13.50;99.90;;;;;;4978030;28;20046;-74
2022/09/12 02:53:13;;;;;;;12.40;11.10;;;13.50;99.90;;;;;;4984873;28;20039;-74
2022/09/12 02:55:40;;;;;;;13.52;12.13;;;13.50;99.90;;;;;;4982110;28;20038;-74
2022/09/12 02:58:11;;;;;;;12.27;10.85;;;13.40;99.90;;;;;;4983587;28;20041;-74
2022/09/12 03:01:02;;;;;;;13.55;12.15;;;13.40;99.90;;;;;;4981588;28;20042;-74
2022/09/12 03:03:53;;;;;;;14.82;13.35;;;13.40;99.90;;;;;;4982873;28;20062;-74
2022/09/12 03:06:32;;;;;;;21.50;19.30;;;13.40;99.90;;;;;;4978343;28;20039;-74
2022/09/12 03:09:19;;;;;;;20.40;18.05;;;13.40;99.90;;;;;;4983125;28;20129;-74
2022/09/12 03:12:17;;;;;;;17.02;15.40;;;13.40;99.90;;;;;;4979830;28;20068;-74
2022/09/12 03:14:42;;;;;;;21.17;18.25;;;13.40;99.90;;;;;;4984154;28;20042;-74
2022/09/12 03:17:40;;;;;;;19.67;17.58;;;13.50;99.90;;;;;;4987189;28;20041;-74
2022/09/12 03:20:31;;;;;;;23.10;20.70;;;13.50;99.90;;;;;;4980805;28;20148;-74
2022/09/12 03:23:15;;;;;;;22.92;17.73;;;13.50;99.90;;;;;;4980849;28;20181;-74
2022/09/12 03:25:48;;;;;;;20.58;18.38;;;13.50;99.90;;;;;;4980825;28;20487;-74
2022/09/12 03:28:16;;;;;;;20.05;17.95;;;13.50;99.90;;;;;;4985472;28;20101;-74
2022/09/12 03:30:47;;;;;;;16.48;14.77;;;13.50;99.90;;;;;;4983013;28;20038;-74
2022/09/12 03:33:15;;;;;;;17.58;15.68;;;13.50;99.90;;;;;;4982366;28;20093;-74
2022/09/12 03:35:41;;;;;;;10.70;9.68;;;13.40;99.90;;;;;;4978911;28;20031;-74
2022/09/12 03:38:07;;;;;;;11.43;10.32;;;13.40;99.90;;;;;;4979513;28;20039;-74
2022/09/12 03:40:34;;;;;;;16.98;15.27;;;13.30;99.90;;;;;;4986872;28;20058;-74
2022/09/12 03:43:00;;;;;;;22.58;19.00;;;13.30;99.90;;;;;;4982479;28;20049;-74
2022/09/12 03:45:25;;;;;;;22.17;18.73;;;13.30;99.90;;;;;;4984753;28;20042;-74
2022/09/12 03:47:51;;;;;;;17.08;15.18;;;13.30;99.90;;;;;;4985949;28;20071;-74
2022/09/12 03:50:17;;;;;;;12.80;11.48;;;13.30;99.90;;;;;;4972357;28;20061;-74
2022/09/12 03:52:43;;;;;;;16.83;15.07;;;13.30;99.90;;;;;;4988309;28;20050;-74
2022/09/12 03:55:08;;;;;;;13.75;12.43;;;13.20;99.90;;;;;;4984636;28;20062;-74
2022/09/12 03:57:34;;;;;;;14.82;13.40;;;13.20;99.90;;;;;;4980404;28;20061;-74
2022/09/12 04:00:00;;;;;;;9.70;8.80;;;13.20;99.90;;;;;;4987528;28;20109;-74
2022/09/12 04:02:27;;;;;;;9.50;8.57;;;13.20;99.90;;;;;;4969299;28;20034;-74
2022/09/12 04:04:53;;;;;;;9.93;8.23;;;13.20;99.90;;;;;;4990317;28;20080;-74
2022/09/12 04:07:18;;;;;;;11.07;9.98;;;13.10;99.90;;;;;;4980279;28;20042;-74
2022/09/12 04:09:44;;;;;;;8.05;7.25;;;13.10;99.90;;;;;;4980719;28;20129;-74
2022/09/12 04:12:10;;;;;;;8.77;7.88;;;13.00;99.90;;;;;;4992251;28;20135;-74
2022/09/12 04:14:35;;;;;;;10.43;9.52;;;13.00;99.90;;;;;;4982102;28;20051;-74
2022/09/12 04:17:01;;;;;;;15.77;12.27;;;13.00;99.90;;;;;;4990254;28;20030;-74
2022/09/12 04:19:27;;;;;;;12.98;11.68;;;13.00;99.90;;;;;;4982982;28;20038;-74
2022/09/12 04:21:53;;;;;;;15.50;12.95;;;13.00;99.90;;;;;;4982665;28;20094;-74
2022/09/12 04:24:19;;;;;;;17.23;15.38;;;13.00;99.90;;;;;;4984855;28;20099;-74
2022/09/12 04:26:44;;;;;;;18.17;16.15;;;13.00;99.90;;;;;;4990684;28;20133;-74
2022/09/12 04:29:11;;;;;;;21.88;14.82;;;13.00;99.90;;;;;;4998695;28;20486;-73
2022/09/12 04:31:38;;;;;;;19.08;16.17;;;12.90;99.90;;;;;;4972565;28;20047;-74
2022/09/12 04:34:04;;;;;;;21.98;18.05;;;13.00;99.90;;;;;;4987718;28;20038;-74
2022/09/12 04:36:32;;;;;;;22.25;19.50;;;13.00;99.90;;;;;;4987611;28;20169;-74
2022/09/12 04:38:59;;;;;;;18.63;16.02;;;13.00;99.90;;;;;;4993031;28;20058;-74
2022/09/12 04:41:28;;;;;;;18.02;16.02;;;13.00;99.90;;;;;;4982729;28;20035;-74
2022/09/12 04:44:01;;;;;;;22.08;17.67;;;13.00;99.90;;;;;;4980207;28;20083;-74
2022/09/12 04:46:28;;;;;;;20.88;16.00;;;13.00;99.90;;;;;;4981993;28;20047;-74
2022/09/12 04:48:54;;;;;;;23.65;18.23;;;13.00;99.90;;;;;;4985274;28;20054;-74
2022/09/12 04:51:28;;;;;;;20.00;17.80;;;13.00;99.90;;;;;;4987722;28;20050;-74
2022/09/12 04:53:56;;;;;;;16.65;15.00;;;13.00;99.90;;;;;;4978288;28;20035;-74
2022/09/12 04:56:23;;;;;;;16.67;14.55;;;13.00;99.90;;;;;;4983294;28;20048;-74
2022/09/12 04:58:49;;;;;;;19.35;15.52;;;13.00;99.90;;;;;;4977574;28;20411;-74
2022/09/12 05:01:17;;;;;;;19.30;14.98;;;13.00;99.90;;;;;;4974498;28;20050;-74
2022/09/12 05:03:44;;;;;;;22.77;17.50;;;13.10;99.90;;;;;;4966294;28;20070;-74
2022/09/12 05:06:19;;;;;;;18.92;16.92;;;13.10;99.90;;;;;;4980423;28;20047;-74
2022/09/12 05:08:45;;;;;;;20.55;17.40;;;13.10;99.90;;;;;;4974957;28;20066;-74
2022/09/12 05:11:13;;;;;;;20.70;18.48;;;13.10;99.90;;;;;;4982639;28;20045;-73
2022/09/12 05:13:39;;;;;;;24.98;20.65;;;13.20;99.90;;;;;;4964505;28;20501;-74
2022/09/12 05:16:07;;;;;;;29.48;22.30;;;13.20;99.90;;;;;;4988179;28;20030;-74
2022/09/12 05:18:34;;;;;;;28.63;24.17;;;13.30;99.90;;;;;;4971183;28;20074;-74
2022/09/12 05:21:01;;;;;;;28.35;23.42;;;13.30;99.90;;;;;;4980527;28;20038;-74
2022/09/12 05:23:28;;;;;;;31.63;25.02;;;13.40;99.90;;;;;;4979295;28;20086;-74
2022/09/12 05:25:55;;;;;;;32.95;25.98;;;13.40;99.90;;;;;;4984420;28;20141;-73
2022/09/12 05:28:21;;;;;;;32.72;27.20;;;13.40;99.90;;;;;;4983942;28;20041;-74
2022/09/12 05:30:47;;;;;;;34.13;26.60;;;13.50;99.90;;;;;;4962924;28;20109;-74
2022/09/12 05:33:14;;;;;;;38.33;30.15;;;13.60;99.90;;;;;;4981521;28;20046;-74
2022/09/12 05:35:39;;;;;;;40.20;31.65;;;13.60;99.90;;;;;;4977246;28;20097;-73
2022/09/12 05:38:06;;;;;;;51.05;37.25;;;13.60;99.90;;;;;;4986823;28;20030;-74
2022/09/12 05:40:33;;;;;;;69.65;43.63;;;13.70;99.90;;;;;;4990527;28;20040;-74
2022/09/12 05:42:59;;;;;;;71.18;45.10;;;13.80;99.90;;;;;;4979756;28;20034;-74
2022/09/12 05:45:25;;;;;;;65.25;44.25;;;13.90;99.90;;;;;;4981182;28;20410;-74
2022/09/12 05:47:53;;;;;;;67.47;44.13;;;14.00;99.90;;;;;;4975885;28;20052;-74
2022/09/12 05:50:19;;;;;;;75.85;46.40;;;14.00;99.90;;;;;;4975199;28;20042;-73
2022/09/12 05:52:45;;;;;;;59.35;40.53;;;14.10;99.90;;;;;;4972447;28;20038;-74
2022/09/12 05:55:11;;;;;;;62.10;42.83;;;14.20;99.90;;;;;;4977568;28;20121;-74
2022/09/12 05:57:37;;;;;;;66.00;43.67;;;14.20;99.90;;;;;;4964083;28;20578;-74
2022/09/12 06:00:04;;;;;;;60.60;40.60;;;14.20;99.90;;;;;;4962003;28;20039;-74
2022/09/12 06:02:30;;;;;;;59.88;40.90;;;14.30;99.90;;;;;;4984076;28;20041;-74
2022/09/12 06:04:56;;;;;;;59.00;41.13;;;14.40;99.90;;;;;;4984912;28;20038;-74
2022/09/12 06:07:22;;;;;;;60.75;41.72;;;14.40;99.90;;;;;;4981735;28;20042;-74
2022/09/12 06:09:47;;;;;;;61.60;40.70;;;14.40;99.90;;;;;;4980522;28;20064;-74
2022/09/12 06:12:13;;;;;;;58.88;41.15;;;14.50;99.90;;;;;;4978856;28;20063;-74
2022/09/12 06:14:38;;;;;;;57.92;40.45;;;14.50;99.90;;;;;;4988351;28;20038;-74
2022/09/12 06:17:04;;;;;;;58.67;40.20;;;14.50;99.90;;;;;;4978415;28;20036;-74
2022/09/12 06:19:30;;;;;;;62.55;41.90;;;14.50;99.90;;;;;;4986239;28;20120;-74
2022/09/12 06:21:55;;;;;;;58.67;40.47;;;14.60;99.90;;;;;;4988625;28;20038;-74
2022/09/12 06:24:21;;;;;;;55.67;38.45;;;14.70;99.90;;;;;;4984898;28;20068;-75
2022/09/12 06:26:48;;;;;;;61.97;41.17;;;14.70;99.90;;;;;;4984257;28;20074;-74
2022/09/12 06:29:14;;;;;;;61.25;41.47;;;14.70;99.90;;;;;;4984317;28;20044;-74
2022/09/12 06:31:42;;;;;;;61.58;41.03;;;14.80;99.90;;;;;;4981701;28;20038;-74
2022/09/12 06:34:10;;;;;;;62.83;41.08;;;14.80;99.90;;;;;;4981428;28;20097;-75
2022/09/12 06:36:37;;;;;;;65.07;41.78;;;14.80;99.90;;;;;;4964476;28;20184;-74
2022/09/12 06:39:07;;;;;;;63.28;42.13;;;14.90;99.90;;;;;;4985962;28;20045;-75
2022/09/12 06:41:33;;;;;;;64.65;41.50;;;14.90;99.90;;;;;;4983103;28;20061;-75
2022/09/12 06:43:59;;;;;;;59.10;40.70;;;14.90;99.90;;;;;;4983018;28;20035;-75
2022/09/12 06:46:25;;;;;;;60.03;41.25;;;15.00;99.90;;;;;;4978296;28;20044;-75
2022/09/12 06:48:51;;;;;;;56.92;39.30;;;15.00;99.90;;;;;;4985161;28;20070;-75
2022/09/12 06:51:19;;;;;;;64.25;41.58;;;15.00;99.90;;;;;;4983280;28;20053;-75
2022/09/12 06:53:45;;;;;;;57.70;40.83;;;15.10;99.90;;;;;;4966525;28;20053;-75
2022/09/12 06:56:13;;;;;;;58.45;40.20;;;15.10;99.90;;;;;;4984030;28;20031;-75
2022/09/12 06:58:39;;;;;;;59.47;40.88;;;15.10;99.90;;;;;;4991851;28;20069;-75
2022/09/12 07:01:08;;;;;;;62.28;42.00;;;15.30;99.90;;;;;;4983249;28;20439;-75
2022/09/12 07:03:35;;;;;;;61.72;40.92;;;15.30;99.90;;;;;;4985526;28;20065;-75
2022/09/12 07:06:31;;;;;;;60.17;40.47;;;15.30;99.90;;;;;;4979826;28;20034;-75
2022/09/12 07:08:58;;;;;;;58.30;39.75;;;15.30;99.90;;;;;;4980000;28;20134;-75
2022/09/12 07:11:26;;;;;;;57.53;38.13;;;15.40;99.90;;;;;;4982371;28;20042;-75
2022/09/12 07:13:55;;;;;;;53.42;36.97;;;15.40;99.90;;;;;;4983836;28;20047;-75
2022/09/12 07:16:21;;;;;;;54.47;36.65;;;15.40;99.90;;;;;;4980574;28;20118;-75
2022/09/12 07:18:54;;;;;;;54.33;37.28;;;15.40;99.90;;;;;;4971141;28;20030;-75
2022/09/12 07:21:20;;;;;;;56.50;38.25;;;15.50;99.90;;;;;;4978119;28;20047;-75
2022/09/12 07:23:46;;;;;;;56.45;37.53;;;15.50;99.90;;;;;;4983646;28;20066;-75
2022/09/12 07:26:14;;;;;;;56.25;38.00;;;15.60;99.90;;;;;;4973495;28;20085;-75
2022/09/12 07:28:40;;;;;;;55.58;37.15;;;15.60;99.90;;;;;;4980814;28;20065;-75
2022/09/12 07:31:09;;;;;;;55.92;36.10;;;15.60;99.90;;;;;;4973819;28;20081;-75
2022/09/12 07:33:36;;;;;;;52.97;35.97;;;15.70;99.90;;;;;;4980334;28;20042;-75
2022/09/12 07:36:04;;;;;;;51.70;35.95;;;15.80;99.90;;;;;;4974907;28;20038;-75
2022/09/12 07:38:30;;;;;;;51.47;36.25;;;15.80;99.90;;;;;;4988117;28;20050;-75
2022/09/12 07:40:56;;;;;;;50.80;35.03;;;15.90;99.90;;;;;;4985669;28;20034;-75
2022/09/12 07:43:22;;;;;;;50.45;35.10;;;15.90;99.90;;;;;;4982373;28;20047;-75
2022/09/12 07:45:53;;;;;;;47.88;34.47;;;16.00;99.90;;;;;;4978749;28;20045;-75
2022/09/12 07:48:19;;;;;;;47.80;34.50;;;16.00;99.90;;;;;;4973323;28;20121;-75
2022/09/12 07:50:45;;;;;;;47.80;34.47;;;16.10;99.90;;;;;;4980651;28;20037;-75
2022/09/12 07:53:10;;;;;;;47.30;32.90;;;16.10;99.90;;;;;;4984618;28;20098;-75
2022/09/12 07:55:36;;;;;;;46.17;32.15;;;16.20;99.90;;;;;;4987292;28;20045;-75
2022/09/12 07:58:02;;;;;;;47.25;33.50;;;16.20;99.90;;;;;;4978503;28;20049;-75
2022/09/12 08:00:34;;;;;;;44.83;32.15;;;16.20;99.90;;;;;;4983568;28;20043;-72
2022/09/12 08:03:01;;;;;;;40.47;31.13;;;16.30;99.90;;;;;;4979605;28;20039;-72
2022/09/12 08:05:28;;;;;;;44.83;33.17;;;16.30;99.90;;;;;;4978934;28;20042;-75
2022/09/12 08:07:54;;;;;;;47.83;33.17;;;16.40;99.90;;;;;;4964048;28;20100;-75
2022/09/12 08:10:20;;;;;;;47.03;32.28;;;16.60;99.90;;;;;;4983124;28;20042;-75
2022/09/12 08:12:45;;;;;;;50.38;32.40;;;16.70;99.90;;;;;;4985700;28;20054;-75
2022/09/12 08:15:11;;;;;;;41.72;30.75;;;16.80;99.90;;;;;;4982940;28;20071;-75
2022/09/12 08:17:36;;;;;;;44.35;31.90;;;16.90;99.90;;;;;;4975012;28;20045;-75
2022/09/12 08:20:03;;;;;;;42.72;31.85;;;17.00;99.90;;;;;;4979624;28;20073;-75
2022/09/12 08:22:30;;;;;;;40.42;30.90;;;17.10;99.90;;;;;;4947830;28;20038;-75
2022/09/12 08:24:55;;;;;;;44.00;33.00;;;17.10;99.90;;;;;;4987873;28;20133;-75
2022/09/12 08:27:21;;;;;;;46.25;33.47;;;17.10;99.90;;;;;;4981883;28;20121;-75
2022/09/12 08:29:46;;;;;;;46.15;33.05;;;17.20;99.90;;;;;;4973760;28;20041;-75
2022/09/12 08:32:12;;;;;;;44.97;33.17;;;17.40;99.90;;;;;;4980566;28;20070;-75
2022/09/12 08:34:38;;;;;;;48.05;34.15;;;17.50;99.90;;;;;;4977233;28;20039;-75
2022/09/12 08:37:04;;;;;;;47.55;33.35;;;17.60;99.90;;;;;;4952498;28;20042;-75
2022/09/12 08:39:30;;;;;;;50.25;34.38;;;17.70;99.90;;;;;;4985336;28;20494;-75
2022/09/12 08:42:05;;;;;;;47.33;33.90;;;17.90;99.90;;;;;;4979536;28;20422;-76
2022/09/12 08:44:37;;;;;;;47.50;34.83;;;18.00;99.90;;;;;;4987523;28;20567;-76
2022/09/12 08:47:24;;;;;;;52.50;35.85;;;18.20;99.90;;;;;;4964939;28;20046;-76
2022/09/12 08:49:59;;;;;;;51.13;36.55;;;18.20;99.90;;;;;;4978133;28;20077;-76
2022/09/12 08:52:39;;;;;;;52.15;36.53;;;18.30;99.90;;;;;;4986174;28;20050;-76
2022/09/12 08:55:23;;;;;;;52.40;36.70;;;18.40;99.90;;;;;;4986074;28;20686;-76
2022/09/12 08:57:50;;;;;;;52.90;36.58;;;18.50;99.90;;;;;;4981550;28;20050;-75
2022/09/12 09:00:18;;;;;;;55.33;37.60;;;18.70;99.90;;;;;;4975217;28;20498;-75
2022/09/12 09:03:02;;;;;;;52.80;36.88;;;18.70;99.90;;;;;;4975630;28;20046;-75
2022/09/12 09:05:43;;;;;;;52.08;36.22;;;18.80;99.90;;;;;;4983826;28;20531;-76
2022/09/12 09:08:19;;;;;;;49.92;36.17;;;18.90;99.90;;;;;;4981520;28;20848;-76
2022/09/12 09:10:55;;;;;;;52.55;36.45;;;19.00;99.90;;;;;;4961191;28;20499;-76
2022/09/12 09:16:43;;;;;;;45.03;33.03;;;19.30;99.90;;;;;;4984579;28;20600;-75
2022/09/12 09:19:32;;;;;;;47.35;35.45;;;19.50;99.90;;;;;;4982815;28;20487;-75
2022/09/12 09:22:15;;;;;;;49.90;34.55;;;19.50;99.90;;;;;;4982735;28;20566;-75
2022/09/12 09:24:49;;;;;;;;;;;19.40;99.90;;;;;;4964015;28;20517;-75
2022/09/12 09:27:21;;;;;;;47.25;34.25;;;19.50;99.90;;;;;;4975124;28;19925;-75
2022/09/12 09:29:52;;;;;;;47.88;33.45;;;19.50;99.90;;;;;;4984688;28;20413;-75
2022/09/12 09:32:30;;;;;;;47.40;32.35;;;19.70;99.90;;;;;;4980655;28;20462;-75
2022/09/12 09:34:55;;;;;;;40.72;31.50;;;19.80;99.90;;;;;;4980684;28;20129;-75
2022/09/12 09:37:43;;;;;;;44.50;32.88;;;19.90;99.90;;;;;;5000673;28;20054;-75
2022/09/12 09:40:26;;;;;;;44.35;31.30;;;20.10;99.90;;;;;;4981651;28;20380;-75
2022/09/12 09:42:58;;;;;;;41.15;29.30;;;20.20;99.90;;;;;;4974638;28;20501;-75
2022/09/12 09:45:28;;;;;;;46.47;29.30;;;20.30;99.90;;;;;;4980008;28;20406;-75
2022/09/12 09:47:57;;;;;;;41.92;29.40;;;20.30;99.90;;;;;;4957849;28;20659;-75
2022/09/12 09:50:23;;;;;;;41.97;28.85;;;20.50;99.90;;;;;;4984136;28;20475;-75
2022/09/12 09:52:51;;;;;;;40.60;26.70;;;20.60;99.90;;;;;;4981935;28;20066;-75
2022/09/12 09:55:22;;;;;;;38.40;27.13;;;20.80;99.90;;;;;;4982143;28;20088;-76
2022/09/12 09:57:50;;;;;;;35.03;26.33;;;21.00;99.90;;;;;;4985090;28;20035;-76
2022/09/12 10:00:30;;;;;;;35.03;27.08;;;21.10;99.90;;;;;;4986725;28;20427;-76
2022/09/12 10:03:07;;;;;;;35.25;26.30;;;21.00;99.90;;;;;;4986398;28;20510;-75
2022/09/12 10:05:43;;;;;;;38.45;26.67;;;21.10;99.90;;;;;;4963235;28;20053;-75
2022/09/12 10:08:09;;;;;;;39.22;26.83;;;21.00;99.90;;;;;;4983944;28;20042;-76
2022/09/12 10:10:34;;;;;;;35.13;25.80;;;20.90;99.90;;;;;;4978804;28;20101;-76
2022/09/12 10:13:23;;;;;;;38.65;26.77;;;21.00;99.90;;;;;;4989400;28;20518;-76
2022/09/12 10:16:17;;;;;;;41.13;26.98;;;21.20;99.90;;;;;;4986954;28;20038;-76
2022/09/12 10:18:43;;;;;;;35.97;26.92;;;21.50;99.90;;;;;;4981162;28;20046;-76
2022/09/12 10:21:34;;;;;;;32.33;25.67;;;21.80;99.90;;;;;;4988236;28;20487;-76
2022/09/12 10:24:15;;;;;;;32.15;25.58;;;22.10;99.90;;;;;;4967872;28;20050;-75
2022/09/12 10:26:42;;;;;;;30.20;24.52;;;22.30;99.90;;;;;;4971974;28;20074;-76
2022/09/12 10:29:18;;;;;;;30.02;22.83;;;22.40;99.90;;;;;;4970692;28;20066;-76
2022/09/12 10:31:50;;;;;;;28.63;23.00;;;22.50;99.90;;;;;;4987881;28;20101;-76
2022/09/12 10:34:42;;;;;;;28.58;21.88;;;22.60;99.90;;;;;;4984915;28;20046;-76
2022/09/12 10:37:14;;;;;;;30.00;22.92;;;22.60;99.90;;;;;;4982532;28;20435;-76
2022/09/12 10:39:40;;;;;;;29.90;22.92;;;22.60;99.90;;;;;;4971374;28;20052;-76
2022/09/12 10:42:06;;;;;;;30.65;23.73;;;22.60;99.90;;;;;;4989964;28;20478;-76
2022/09/12 10:44:33;;;;;;;29.02;22.80;;;22.70;99.90;;;;;;4982794;28;20530;-77
2022/09/12 10:47:19;;;;;;;31.75;22.98;;;22.80;99.90;;;;;;4988228;28;20038;-76
2022/09/12 10:49:44;;;;;;;32.67;23.65;;;22.90;99.90;;;;;;4985044;28;20046;-76
2022/09/12 10:52:22;;;;;;;27.45;21.52;;;22.90;99.90;;;;;;4968201;28;20038;-77
2022/09/12 10:54:48;;;;;;;29.95;22.55;;;23.10;99.90;;;;;;4989226;28;20074;-77
2022/09/12 10:57:41;;;;;;;28.63;21.45;;;23.40;99.90;;;;;;4970618;28;20398;-77
2022/09/12 11:00:16;;;;;;;25.88;20.75;;;23.50;99.90;;;;;;4969218;28;20457;-77
2022/09/12 11:03:01;;;;;;;27.65;21.40;;;23.80;99.90;;;;;;4969895;28;20501;-77
2022/09/12 11:05:35;;;;;;;27.00;19.58;;;23.80;99.90;;;;;;4967815;28;20043;-77
2022/09/12 11:08:11;;;;;;;28.00;21.05;;;24.00;99.90;;;;;;4981835;28;20093;-76
2022/09/12 11:10:46;;;;;;;21.27;17.42;;;24.10;99.90;;;;;;4990680;28;20034;-76
2022/09/12 11:13:25;;;;;;;21.00;17.40;;;24.30;99.90;;;;;;4981765;28;20133;-77
2022/09/12 11:16:09;;;;;;;21.85;16.73;;;24.30;99.90;;;;;;4989665;28;20577;-76
2022/09/12 11:19:14;;;;;;;25.73;18.95;;;24.50;99.90;;;;;;4986220;28;20383;-77
2022/09/12 11:22:03;;;;;;;22.92;16.73;;;24.70;99.90;;;;;;4973729;28;20035;-77
2022/09/12 11:24:34;;;;;;;24.15;17.92;;;25.00;99.90;;;;;;4981660;28;20048;-77
2022/09/12 11:27:25;;;;;;;22.13;16.77;;;25.10;99.90;;;;;;4981926;28;20561;-76
2022/09/12 11:29:58;;;;;;;24.50;16.90;;;25.30;99.90;;;;;;4991116;28;20565;-76
2022/09/12 11:32:36;;;;;;;19.60;16.05;;;25.40;99.90;;;;;;4979374;28;20043;-76
2022/09/12 11:35:16;;;;;;;22.02;15.73;;;25.50;99.90;;;;;;4971532;28;20116;-76
2022/09/12 11:37:50;;;;;;;18.23;16.02;;;25.80;99.90;;;;;;4984255;28;20043;-76
2022/09/12 11:40:35;;;;;;;23.48;18.08;;;25.70;99.10;;;;;;4979099;28;20644;-75
2022/09/12 11:43:09;;;;;;;23.67;16.77;;;25.30;96.70;;;;;;4981219;28;20065;-72
2022/09/12 11:45:41;;;;;;;21.90;16.48;;;24.90;98.80;;;;;;4976230;28;20050;-74
2022/09/12 11:48:13;;;;;;;24.75;19.05;;;24.90;99.90;;;;;;4971370;28;20415;-75
2022/09/12 11:50:39;;;;;;;23.73;18.10;;;24.90;99.90;;;;;;4988559;28;20046;-75
2022/09/12 11:53:21;;;;;;;17.67;14.43;;;24.80;99.90;;;;;;4983752;28;20040;-76
2022/09/12 11:56:04;;;;;;;18.98;14.82;;;24.70;99.90;;;;;;4986082;28;20094;-75
2022/09/12 11:58:30;;;;;;;16.65;13.60;;;24.60;99.20;;;;;;4983781;28;20038;-77
2022/09/12 12:01:11;;;;;;;18.83;13.73;;;24.50;97.70;;;;;;4986425;28;20050;-77
2022/09/12 12:03:43;;;;;;;16.47;12.80;;;24.50;99.10;;;;;;4988398;28;20045;-76
2022/09/12 12:06:20;;;;;;;17.15;13.07;;;24.50;99.10;;;;;;4983893;28;20093;-76
2022/09/12 12:08:48;;;;;;;17.27;13.15;;;24.50;98.80;;;;;;4972525;28;20446;-77
2022/09/12 12:11:26;;;;;;;15.88;13.43;;;24.50;97.40;;;;;;4970457;28;20042;-77
2022/09/12 12:14:35;;;;;;;13.35;11.23;;;24.40;97.30;;;;;;4984150;28;20046;-77
2022/09/12 12:17:01;;;;;;;14.65;11.50;;;24.80;98.90;;;;;;4980289;28;20034;-76
2022/09/12 12:19:36;;;;;;;12.70;10.88;;;25.30;99.40;;;;;;4976684;28;20076;-75
2022/09/12 12:22:21;;;;;;;10.95;9.70;;;25.60;98.40;;;;;;4984866;28;20041;-75
2022/09/12 12:25:05;;;;;;;12.05;9.10;;;25.80;97.40;;;;;;4988918;28;20096;-75
2022/09/12 12:28:00;;;;;;;12.40;9.88;;;26.10;96.20;;;;;;4980512;28;20077;-76
2022/09/12 12:30:29;;;;;;;9.80;7.47;;;26.30;95.50;;;;;;4942845;28;20054;-76
2022/09/12 12:33:18;;;;;;;7.63;6.45;;;26.40;94.50;;;;;;4980145;28;20498;-77
2022/09/12 12:36:03;;;;;;;5.97;3.78;;;26.20;91.20;;;;;;4944531;28;20046;-77
2022/09/12 12:38:31;;;;;;;5.53;4.43;;;26.40;90.70;;;;;;4987222;28;20117;-77
2022/09/12 12:41:15;;;;;;;5.93;5.32;;;26.40;91.00;;;;;;4979502;28;20039;-76
2022/09/12 12:43:45;;;;;;;8.52;5.72;;;26.10;89.40;;;;;;4969689;28;20031;-77
2022/09/12 12:46:13;;;;;;;10.35;6.70;;;26.00;91.00;;;;;;4974941;28;20466;-76
2022/09/12 12:49:19;;;;;;;7.22;6.35;;;26.20;90.60;;;;;;4982159;28;20483;-76
2022/09/12 12:52:15;;;;;;;6.40;5.13;;;26.40;92.70;;;;;;4977593;28;20081;-76
2022/09/12 12:55:03;;;;;;;7.80;4.47;;;26.70;91.30;;;;;;4971160;28;20051;-76
2022/09/12 12:57:47;;;;;;;8.70;4.60;;;26.90;90.30;;;;;;4980250;28;20045;-76
2022/09/12 13:00:19;;;;;;;6.65;5.35;;;27.00;90.10;;;;;;4981149;28;20089;-76
2022/09/12 13:03:03;;;;;;;8.93;6.10;;;26.90;89.90;;;;;;4976666;28;20125;-76
2022/09/12 13:05:43;;;;;;;7.82;6.25;;;26.80;90.10;;;;;;4966515;28;20039;-76